Sublime, Texas
Current Conditions -  °F | °C
As of 8:35 PM on Saturday 25 Oct 2014 (Local Time) from K66R Reporting Station
Clear Clear  
Wind Chill: 22°   Ceiling: Unl
Heat Index: 22°   Visibility: 10mi
Dew Point: 16°   Wind: 5mph
Humidity: 68%   Direction: 170°S
Pressure: 30.1"   Gusts: NA
Location:  29.48°N, 96.8°W
Report Text: K66R 260135Z AUTO 17004KT 10SM CLR 22/16 A3010 RMK AO2 T02200158
Loading
Personal Weather Stations






























Interactive Weather Map
Tropical Storm Tracking
New forecast layout! Learn more

10-Day Weather Forecast

Advertisements
Track Severe Weather on mobile